Time;durP1;ratioP1;P1;durP2;ratioP2;P2;SDS_P1;SDS_P2;PMS_P1;PMS_P2;Temp;Humidity;BMP_temperature;BMP_pressure;BME280_temperature;BME280_humidity;BME280_pressure;Samples;Min_cycle;Max_cycle;Signal;HPM_P1;HPM_P2
2022/05/27 00:00:54;;;;;;;25.60;3.93;;;14.30;33.10;;;;;;5050719;28;20463;-62
2022/05/27 00:03:22;;;;;;;25.20;3.70;;;14.30;33.10;;;;;;5048150;28;21128;-62
2022/05/27 00:05:52;;;;;;;25.57;3.80;;;14.30;33.20;;;;;;5044089;28;20474;-62
2022/05/27 00:08:19;;;;;;;27.00;3.70;;;14.30;33.40;;;;;;5045054;28;20462;-61
2022/05/27 00:10:47;;;;;;;25.57;3.90;;;14.30;33.40;;;;;;5042914;28;20525;-61
2022/05/27 00:13:13;;;;;;;25.20;3.37;;;14.30;33.40;;;;;;5047931;28;20493;-60
2022/05/27 00:15:41;;;;;;;26.30;4.03;;;14.20;33.40;;;;;;5036539;28;20482;-61
2022/05/27 00:18:08;;;;;;;26.10;3.57;;;14.20;33.60;;;;;;5044031;28;20458;-61
2022/05/27 00:20:35;;;;;;;25.80;3.50;;;14.30;33.50;;;;;;5047082;28;20996;-62
2022/05/27 00:23:02;;;;;;;25.73;3.60;;;14.20;33.50;;;;;;5044225;28;20560;-61
2022/05/27 00:25:29;;;;;;;27.10;4.27;;;14.20;33.40;;;;;;5038298;28;20964;-62
2022/05/27 00:27:57;;;;;;;27.17;3.93;;;14.20;33.50;;;;;;5045712;28;20453;-61
2022/05/27 00:30:25;;;;;;;25.50;3.70;;;14.10;33.30;;;;;;5046946;28;20519;-62
2022/05/27 00:32:51;;;;;;;26.03;4.07;;;14.10;33.30;;;;;;5036293;28;20489;-61
2022/05/27 00:35:18;;;;;;;25.87;3.77;;;14.10;33.20;;;;;;5035391;28;20471;-60
2022/05/27 00:37:45;;;;;;;25.83;3.93;;;14.10;33.40;;;;;;5039485;28;20462;-62
2022/05/27 00:40:14;;;;;;;26.30;4.17;;;14.10;33.80;;;;;;5039602;28;20450;-61
2022/05/27 00:42:41;;;;;;;26.63;3.80;;;14.10;33.80;;;;;;5045099;28;21010;-60
2022/05/27 00:45:15;;;;;;;25.80;3.80;;;14.10;33.90;;;;;;5040530;28;20454;-60
2022/05/27 00:47:42;;;;;;;26.63;4.07;;;14.10;34.20;;;;;;5043269;28;20471;-60
2022/05/27 00:50:14;;;;;;;25.90;4.10;;;14.10;34.20;;;;;;5042605;28;20462;-60
2022/05/27 00:52:42;;;;;;;27.13;3.97;;;14.10;34.20;;;;;;5043680;28;20485;-60
2022/05/27 00:55:13;;;;;;;27.43;3.73;;;14.10;34.00;;;;;;5044784;28;20458;-60
2022/05/27 00:57:44;;;;;;;26.03;3.80;;;14.10;34.00;;;;;;5037130;23;20504;-61
2022/05/27 01:00:16;;;;;;;25.30;3.30;;;14.10;34.30;;;;;;5022459;28;20957;-61
2022/05/27 01:02:43;;;;;;;26.33;3.47;;;14.10;34.20;;;;;;5043023;28;20508;-61
2022/05/27 01:05:13;;;;;;;26.87;4.27;;;14.10;34.20;;;;;;5047284;28;20465;-62
2022/05/27 01:07:39;;;;;;;26.70;4.13;;;14.00;34.90;;;;;;5050782;28;20479;-62
2022/05/27 01:10:10;;;;;;;25.33;3.90;;;14.00;34.40;;;;;;5053484;28;20501;-61
2022/05/27 01:12:55;;;;;;;27.70;4.10;;;14.00;34.60;;;;;;5041212;28;20888;-61
2022/05/27 01:15:34;;;;;;;28.20;4.40;;;14.00;34.80;;;;;;5047596;28;20468;-62
2022/05/27 01:18:11;;;;;;;26.13;3.73;;;14.00;34.70;;;;;;5040175;28;20568;-62
2022/05/27 01:20:46;;;;;;;26.47;4.00;;;14.00;34.70;;;;;;5048770;28;20468;-65
2022/05/27 01:23:42;;;;;;;27.17;4.20;;;14.00;34.60;;;;;;5041826;28;20458;-61
2022/05/27 01:26:28;;;;;;;27.87;3.80;;;14.10;34.90;;;;;;5043542;28;20485;-64
2022/05/27 01:29:08;;;;;;;28.40;3.80;;;14.10;34.80;;;;;;5046743;28;20461;-62
2022/05/27 01:31:44;;;;;;;26.77;3.90;;;14.10;34.70;;;;;;5050859;28;20465;-63
2022/05/27 01:34:18;;;;;;;26.90;4.10;;;14.10;34.60;;;;;;5047111;28;21006;-62
2022/05/27 01:36:48;;;;;;;26.70;3.60;;;14.10;34.50;;;;;;5052722;28;20572;-62
2022/05/27 01:39:24;;;;;;;26.73;3.93;;;14.10;34.40;;;;;;5058354;28;20454;-60
2022/05/27 01:41:59;;;;;;;28.27;3.80;;;14.10;34.50;;;;;;5051437;28;20465;-60
2022/05/27 01:44:35;;;;;;;27.37;3.77;;;14.10;34.40;;;;;;5046528;28;20829;-62
2022/05/27 01:47:08;;;;;;;26.80;3.87;;;14.10;34.40;;;;;;5046974;28;20484;-60
2022/05/27 01:49:39;;;;;;;29.03;4.03;;;14.10;34.40;;;;;;5062998;28;20749;-61
2022/05/27 01:52:16;;;;;;;30.70;4.00;;;14.10;34.40;;;;;;5047802;28;20462;-61
2022/05/27 01:54:55;;;;;;;27.67;4.20;;;14.10;34.60;;;;;;5048761;28;20488;-61
2022/05/27 01:57:28;;;;;;;28.20;4.00;;;14.10;34.50;;;;;;5045338;28;20489;-61
2022/05/27 02:00:06;;;;;;;29.37;3.90;;;14.10;34.40;;;;;;5051231;28;20457;-62
2022/05/27 02:02:38;;;;;;;27.00;3.77;;;14.10;34.50;;;;;;5015971;28;20475;-62
2022/05/27 02:05:09;;;;;;;28.80;3.93;;;14.10;34.40;;;;;;5022662;28;20912;-63
2022/05/27 02:07:40;;;;;;;27.10;4.03;;;14.10;34.40;;;;;;5026521;28;20478;-62
2022/05/27 02:10:13;;;;;;;27.17;3.70;;;14.10;34.40;;;;;;5027973;28;20467;-62
2022/05/27 02:12:45;;;;;;;27.30;4.07;;;14.10;34.40;;;;;;5017195;28;20460;-62
2022/05/27 02:15:15;;;;;;;26.70;3.87;;;14.10;34.30;;;;;;5027638;28;20481;-62
2022/05/27 02:17:48;;;;;;;30.37;3.60;;;14.10;34.40;;;;;;5025194;28;20478;-62
2022/05/27 02:20:22;;;;;;;27.40;3.37;;;14.10;34.50;;;;;;5016566;28;20451;-61
2022/05/27 02:22:59;;;;;;;27.13;3.60;;;14.10;34.50;;;;;;5019256;28;20461;-62
2022/05/27 02:25:31;;;;;;;27.43;3.97;;;14.10;34.60;;;;;;5035439;28;20459;-63
2022/05/27 02:28:04;;;;;;;27.10;4.07;;;14.10;34.50;;;;;;5018903;28;20483;-61
2022/05/27 02:30:32;;;;;;;27.60;3.53;;;14.20;34.50;;;;;;5030730;28;20454;-61
2022/05/27 02:35:50;;;;;;;30.40;3.83;;;14.20;34.30;;;;;;5029829;28;20447;-61
2022/05/27 02:38:18;;;;;;;27.13;4.17;;;14.30;34.30;;;;;;5021472;28;20479;-61
2022/05/27 02:40:55;;;;;;;28.10;3.87;;;14.30;34.30;;;;;;5017538;28;20460;-60
2022/05/27 02:43:30;;;;;;;26.80;3.93;;;14.40;34.50;;;;;;5024375;28;20454;-61
2022/05/27 02:46:08;;;;;;;30.50;3.70;;;14.40;34.40;;;;;;5021661;28;20576;-62
2022/05/27 02:48:41;;;;;;;29.03;4.60;;;14.40;34.30;;;;;;5026447;28;20457;-60
2022/05/27 02:51:19;;;;;;;28.40;3.60;;;14.40;34.20;;;;;;5019219;28;20557;-63
2022/05/27 02:53:53;;;;;;;27.93;3.90;;;14.40;34.30;;;;;;5031014;28;20495;-61
2022/05/27 02:56:22;;;;;;;27.00;3.40;;;14.40;34.30;;;;;;5020286;28;20841;-62
2022/05/27 02:58:50;;;;;;;28.07;4.10;;;14.40;34.10;;;;;;5026318;28;20540;-63
2022/05/27 03:01:17;;;;;;;27.33;3.80;;;14.40;34.00;;;;;;5023709;28;20482;-62
2022/05/27 03:03:45;;;;;;;28.27;4.13;;;14.40;33.90;;;;;;5031436;28;20458;-61
2022/05/27 03:06:42;;;;;;;27.87;3.70;;;14.40;33.90;;;;;;5019496;28;20483;-61
2022/05/27 03:09:17;;;;;;;28.83;3.90;;;14.40;34.10;;;;;;5016220;28;20467;-61
2022/05/27 03:11:51;;;;;;;27.47;3.47;;;14.40;34.00;;;;;;5021113;28;20459;-61
2022/05/27 03:14:41;;;;;;;30.50;3.87;;;14.30;33.90;;;;;;5028476;28;20489;-61
2022/05/27 03:17:26;;;;;;;29.03;3.83;;;14.30;34.10;;;;;;5020745;28;20491;-63
2022/05/27 03:20:18;;;;;;;29.73;4.30;;;14.30;34.10;;;;;;5019924;28;20458;-62
2022/05/27 03:23:08;;;;;;;28.70;3.70;;;14.30;34.30;;;;;;5028062;28;20482;-62
2022/05/27 03:25:41;;;;;;;28.03;3.53;;;14.20;34.20;;;;;;5027712;28;20457;-60
2022/05/27 03:28:18;;;;;;;29.03;3.60;;;14.20;34.10;;;;;;5026596;28;20459;-63
2022/05/27 03:30:53;;;;;;;27.50;3.47;;;14.20;34.30;;;;;;5016877;28;20475;-61
2022/05/27 03:33:31;;;;;;;29.33;3.93;;;14.10;34.20;;;;;;5021835;28;20459;-61
2022/05/27 03:36:08;;;;;;;29.43;3.80;;;14.10;34.30;;;;;;5023116;28;20485;-61
2022/05/27 03:38:40;;;;;;;27.60;3.80;;;14.10;34.40;;;;;;5022422;28;20451;-62
2022/05/27 03:41:12;;;;;;;28.13;3.70;;;14.20;34.30;;;;;;5021848;28;20502;-62
2022/05/27 03:43:40;;;;;;;25.90;3.00;;;14.20;34.30;;;;;;5017637;28;20978;-62
2022/05/27 03:46:08;;;;;;;27.90;3.87;;;14.10;34.30;;;;;;5023217;28;21012;-61
2022/05/27 03:48:37;;;;;;;27.00;3.50;;;14.10;34.40;;;;;;5019942;28;20484;-61
2022/05/27 03:51:18;;;;;;;26.73;3.83;;;14.20;34.30;;;;;;5027575;28;20481;-63
2022/05/27 03:56:29;;;;;;;29.87;3.53;;;14.20;34.20;;;;;;5020738;28;20532;-61
2022/05/27 03:58:56;;;;;;;30.03;3.83;;;14.20;34.10;;;;;;5024168;28;20463;-61
2022/05/27 04:01:25;;;;;;;27.23;3.30;;;14.20;34.30;;;;;;5010491;28;20479;-61
2022/05/27 04:03:51;;;;;;;26.33;3.40;;;14.20;34.30;;;;;;5024287;28;21007;-63
2022/05/27 04:06:20;;;;;;;29.47;3.80;;;14.20;34.20;;;;;;5017543;28;20483;-65
2022/05/27 04:08:46;;;;;;;26.60;3.23;;;14.20;34.20;;;;;;5024331;28;20470;-61
2022/05/27 04:11:13;;;;;;;27.43;4.10;;;14.20;34.10;;;;;;5016864;28;20467;-61
2022/05/27 04:13:40;;;;;;;27.10;3.60;;;14.30;34.30;;;;;;5015576;28;20468;-60
2022/05/27 04:16:06;;;;;;;26.77;3.70;;;14.30;34.40;;;;;;5017100;28;20495;-61
2022/05/27 04:18:33;;;;;;;28.83;3.10;;;14.40;34.40;;;;;;5021006;28;20463;-62
2022/05/27 04:21:00;;;;;;;27.63;3.30;;;14.50;34.40;;;;;;5021349;28;20472;-61
2022/05/27 04:23:28;;;;;;;27.53;3.00;;;14.60;34.10;;;;;;5015656;28;20459;-61
2022/05/27 04:25:55;;;;;;;27.20;3.23;;;14.70;34.10;;;;;;5013924;28;20829;-61
2022/05/27 04:28:22;;;;;;;30.20;2.93;;;15.00;33.50;;;;;;5019539;28;20466;-62
2022/05/27 04:31:12;;;;;;;27.90;2.80;;;15.40;32.70;;;;;;5024919;28;20470;-62
2022/05/27 04:33:39;;;;;;;28.63;3.33;;;15.90;31.50;;;;;;5016613;28;20999;-61
2022/05/27 04:36:07;;;;;;;29.27;3.30;;;16.60;29.70;;;;;;5016484;28;20808;-60
2022/05/27 04:38:37;;;;;;;28.47;3.23;;;17.00;28.00;;;;;;5018953;28;20462;-59
2022/05/27 04:43:33;;;;;;;27.30;2.60;;;17.20;27.20;;;;;;5042711;28;20465;-63
2022/05/27 04:46:00;;;;;;;27.90;3.23;;;17.20;27.40;;;;;;5042718;28;20478;-64
2022/05/27 04:48:27;;;;;;;28.20;3.20;;;17.10;28.00;;;;;;5041410;28;20465;-60
2022/05/27 04:50:54;;;;;;;28.83;3.53;;;17.60;27.90;;;;;;5032327;28;20700;-62
2022/05/27 04:53:21;;;;;;;28.47;3.90;;;18.60;26.00;;;;;;5046552;28;20765;-61
2022/05/27 04:55:49;;;;;;;28.80;3.00;;;19.60;23.10;;;;;;5043986;28;20512;-58
2022/05/27 04:58:16;;;;;;;29.10;3.60;;;20.60;20.00;;;;;;5037224;28;20475;-58
2022/05/27 05:00:45;;;;;;;30.23;3.87;;;21.30;18.40;;;;;;5045710;28;20834;-59
2022/05/27 05:03:13;;;;;;;27.90;3.50;;;21.90;17.20;;;;;;5037563;28;20462;-61
2022/05/27 05:05:41;;;;;;;28.87;2.90;;;22.70;15.70;;;;;;5043655;28;20462;-60
2022/05/27 05:08:15;;;;;;;27.47;2.90;;;23.40;14.00;;;;;;5037454;28;20478;-60
2022/05/27 05:10:42;;;;;;;29.23;2.70;;;24.20;12.90;;;;;;5038792;28;20462;-59
2022/05/27 05:13:10;;;;;;;27.10;2.93;;;25.10;11.40;;;;;;5047605;28;21221;-59
2022/05/27 05:15:38;;;;;;;27.20;3.27;;;26.00;9.90;;;;;;5041448;28;20482;-60
2022/05/27 05:18:05;;;;;;;26.57;2.60;;;26.80;8.40;;;;;;5042524;28;20465;-60
2022/05/27 05:20:33;;;;;;;27.90;2.90;;;27.50;7.00;;;;;;5041613;28;20476;-61
2022/05/27 05:23:00;;;;;;;26.00;2.47;;;28.20;6.20;;;;;;5047159;28;20458;-64
2022/05/27 05:25:28;;;;;;;29.40;3.60;;;28.90;4.80;;;;;;5045553;28;21415;-66
2022/05/27 05:27:55;;;;;;;25.87;2.57;;;29.50;4.10;;;;;;5049150;28;21075;-63
2022/05/27 05:30:26;;;;;;;25.30;2.13;;;30.10;3.00;;;;;;5046823;28;20873;-63
2022/05/27 05:32:53;;;;;;;27.30;2.40;;;30.50;1.70;;;;;;5047103;28;20461;-64
2022/05/27 05:35:22;;;;;;;25.57;2.23;;;30.90;1.80;;;;;;5044775;28;20482;-63
2022/05/27 05:37:48;;;;;;;26.70;2.80;;;31.50;1.00;;;;;;5045678;28;21010;-62
2022/05/27 05:40:16;;;;;;;26.80;2.13;;;32.10;1.00;;;;;;5043887;28;20963;-63
2022/05/27 05:42:43;;;;;;;25.90;2.30;;;32.70;1.00;;;;;;5044016;28;20485;-64
2022/05/27 05:45:13;;;;;;;27.43;2.50;;;33.20;1.00;;;;;;5046155;28;20464;-61
2022/05/27 05:47:41;;;;;;;26.17;2.17;;;33.80;1.00;;;;;;5045864;28;20496;-61
2022/05/27 05:50:09;;;;;;;26.10;2.30;;;34.50;1.00;;;;;;5041201;28;20993;-60
2022/05/27 05:52:35;;;;;;;24.63;2.17;;;34.90;1.00;;;;;;5045190;28;20473;-60
2022/05/27 05:55:03;;;;;;;24.07;2.10;;;35.50;1.00;;;;;;5043919;28;20478;-60
2022/05/27 05:57:30;;;;;;;24.20;1.93;;;35.90;1.00;;;;;;5044678;28;20860;-62
2022/05/27 05:59:59;;;;;;;24.23;2.43;;;36.30;1.00;;;;;;5044410;28;20890;-61
2022/05/27 06:02:26;;;;;;;24.83;2.03;;;36.70;1.00;;;;;;5043788;28;20470;-63
2022/05/27 06:04:56;;;;;;;23.60;1.93;;;37.40;1.00;;;;;;5046540;28;20508;-62
2022/05/27 06:07:23;;;;;;;24.40;2.20;;;37.90;1.00;;;;;;5046593;28;20469;-64
2022/05/27 06:09:49;;;;;;;24.10;1.87;;;38.30;1.00;;;;;;5045891;28;20466;-61
2022/05/27 06:12:22;;;;;;;28.23;2.40;;;38.70;1.00;;;;;;5042770;28;20465;-65
2022/05/27 06:14:48;;;;;;;24.70;1.90;;;38.70;1.00;;;;;;5041999;28;20552;-62
2022/05/27 06:17:15;;;;;;;24.60;2.13;;;39.10;1.00;;;;;;5046581;28;20512;-61
2022/05/27 06:19:42;;;;;;;23.90;1.90;;;39.60;1.00;;;;;;5044768;28;20524;-62
2022/05/27 06:22:10;;;;;;;23.70;2.27;;;40.30;1.00;;;;;;5041941;28;20469;-61
2022/05/27 06:24:37;;;;;;;23.70;2.37;;;40.80;1.00;;;;;;5042510;28;20687;-61
2022/05/27 06:27:06;;;;;;;22.93;2.07;;;41.10;1.00;;;;;;5043974;28;20497;-61
2022/05/27 06:35:01;;;;;;;23.53;2.10;;;41.80;1.00;;;;;;5036901;28;20945;-59
2022/05/27 06:37:30;;;;;;;22.70;1.63;;;42.50;1.00;;;;;;5045388;28;20478;-59
2022/05/27 06:39:58;;;;;;;23.77;1.70;;;42.80;1.00;;;;;;5043178;28;20477;-60
2022/05/27 06:42:25;;;;;;;23.67;2.00;;;43.20;1.00;;;;;;5043026;28;20502;-59
2022/05/27 06:44:52;;;;;;;23.50;1.90;;;43.70;1.00;;;;;;5038494;28;21011;-64
2022/05/27 06:47:19;;;;;;;22.17;2.07;;;43.90;1.00;;;;;;5037640;28;21455;-63
2022/05/27 06:49:46;;;;;;;24.53;1.87;;;44.10;1.00;;;;;;5043243;28;20466;-64
2022/05/27 06:52:15;;;;;;;22.20;2.13;;;44.40;1.00;;;;;;5043834;28;20454;-65
2022/05/27 06:54:44;;;;;;;22.67;2.00;;;44.70;1.00;;;;;;5041885;28;20488;-64
2022/05/27 06:57:11;;;;;;;22.47;2.30;;;45.10;1.00;;;;;;5038860;28;20537;-64
2022/05/27 06:59:38;;;;;;;23.23;1.90;;;45.30;1.00;;;;;;5044402;28;20466;-58
2022/05/27 07:02:05;;;;;;;21.80;2.23;;;45.40;1.00;;;;;;5042104;28;20471;-64
2022/05/27 07:04:32;;;;;;;22.83;2.10;;;45.50;1.00;;;;;;5041793;28;20470;-63
2022/05/27 07:07:00;;;;;;;23.17;2.43;;;45.40;1.00;;;;;;5040143;28;20487;-63
2022/05/27 07:09:27;;;;;;;22.50;2.00;;;45.40;1.00;;;;;;5039521;28;20964;-63
2022/05/27 07:11:56;;;;;;;21.77;1.80;;;45.20;1.00;;;;;;5048472;28;20454;-64
2022/05/27 07:14:23;;;;;;;22.60;2.10;;;45.40;1.00;;;;;;5047640;28;20927;-63
2022/05/27 07:16:50;;;;;;;22.80;2.27;;;45.90;1.00;;;;;;5040101;28;20485;-61
2022/05/27 07:19:19;;;;;;;21.70;2.00;;;46.30;1.00;;;;;;5044447;28;20465;-61
2022/05/27 07:21:47;;;;;;;21.77;2.07;;;46.40;1.00;;;;;;5042194;28;20458;-58
2022/05/27 07:24:16;;;;;;;21.73;1.93;;;46.70;1.00;;;;;;5047245;28;20458;-59
2022/05/27 07:26:44;;;;;;;22.57;1.90;;;47.00;1.00;;;;;;5039780;28;20509;-62
2022/05/27 07:29:12;;;;;;;21.53;1.80;;;47.30;1.00;;;;;;5036444;28;20458;-59
2022/05/27 07:31:40;;;;;;;21.70;1.87;;;47.60;1.00;;;;;;5041726;28;20466;-59
2022/05/27 07:34:08;;;;;;;21.67;1.80;;;48.00;1.00;;;;;;5042025;28;20454;-59
2022/05/27 07:36:35;;;;;;;22.00;2.03;;;48.10;1.00;;;;;;5035679;28;20489;-59
2022/05/27 07:39:02;;;;;;;20.70;1.93;;;48.50;1.00;;;;;;5034487;28;20474;-59
2022/05/27 07:41:28;;;;;;;23.50;1.90;;;48.80;1.00;;;;;;5044611;28;20474;-63
2022/05/27 07:43:56;;;;;;;21.50;2.00;;;49.20;1.00;;;;;;5043701;28;20500;-64
2022/05/27 07:46:25;;;;;;;21.13;2.10;;;49.00;1.00;;;;;;5043476;28;21031;-59
2022/05/27 07:48:52;;;;;;;20.77;1.60;;;47.70;1.00;;;;;;5047407;28;20461;-60
2022/05/27 07:51:19;;;;;;;21.03;2.30;;;47.80;1.00;;;;;;5042561;28;20553;-63
2022/05/27 07:53:46;;;;;;;22.23;2.43;;;47.80;1.00;;;;;;5036949;28;20548;-62
2022/05/27 07:56:13;;;;;;;22.10;2.43;;;47.40;1.00;;;;;;5042345;28;20489;-63
2022/05/27 07:58:40;;;;;;;20.97;2.00;;;47.60;1.00;;;;;;5037584;28;20454;-65
2022/05/27 08:01:08;;;;;;;21.20;1.77;;;48.40;1.00;;;;;;5045277;28;20472;-64
2022/05/27 08:03:36;;;;;;;22.33;1.70;;;48.80;1.00;;;;;;5064847;28;20460;-64
2022/05/27 08:06:03;;;;;;;22.27;1.67;;;49.30;1.00;;;;;;5062715;28;20477;-62
2022/05/27 08:08:30;;;;;;;21.30;1.63;;;49.40;1.00;;;;;;5057839;28;20469;-59
2022/05/27 08:10:57;;;;;;;20.23;1.73;;;49.40;1.00;;;;;;5060323;28;21045;-59
2022/05/27 08:13:24;;;;;;;21.10;1.93;;;49.50;1.00;;;;;;5066366;28;20852;-59
2022/05/27 08:15:52;;;;;;;22.10;1.80;;;48.70;1.00;;;;;;5065652;28;20482;-59
2022/05/27 08:18:18;;;;;;;27.00;2.60;;;47.70;1.00;;;;;;5058949;28;20885;-62
2022/05/27 08:20:47;;;;;;;22.33;2.10;;;45.20;1.00;;;;;;5057348;28;20457;-61
2022/05/27 08:23:14;;;;;;;22.70;2.53;;;43.00;1.00;;;;;;5062875;28;20464;-60
2022/05/27 08:25:41;;;;;;;22.90;2.30;;;42.00;1.00;;;;;;5055076;28;20449;-60
2022/05/27 08:28:08;;;;;;;22.77;2.00;;;40.00;1.00;;;;;;5067763;28;20504;-61
2022/05/27 08:30:37;;;;;;;23.73;1.90;;;38.90;1.00;;;;;;5061929;28;21451;-61
2022/05/27 08:33:04;;;;;;;23.40;2.37;;;38.00;1.00;;;;;;5059264;28;20460;-61
2022/05/27 08:38:21;;;;;;;22.30;2.13;;;41.10;1.00;;;;;;5052785;28;20501;-57
2022/05/27 08:41:21;;;;;;;24.83;2.60;;;39.40;1.00;;;;;;5053604;28;20473;-60
2022/05/27 08:44:01;;;;;;;23.50;2.30;;;39.20;1.00;;;;;;5054033;28;20513;-58
2022/05/27 08:46:37;;;;;;;25.20;2.00;;;37.00;1.00;;;;;;5056153;28;20485;-58
2022/05/27 08:49:09;;;;;;;25.63;2.80;;;35.10;1.00;;;;;;5055303;28;20469;-64
2022/05/27 08:51:42;;;;;;;24.67;2.50;;;34.20;1.00;;;;;;5049545;28;20768;-63
2022/05/27 08:54:14;;;;;;;24.30;1.90;;;33.70;1.00;;;;;;5053800;28;20468;-63
2022/05/27 08:59:37;;;;;;;24.37;2.13;;;31.80;1.00;;;;;;5054432;28;20488;-64
2022/05/27 09:02:11;;;;;;;23.83;1.83;;;32.20;1.00;;;;;;5055519;28;20490;-63
2022/05/27 09:04:44;;;;;;;24.70;2.20;;;31.60;1.00;;;;;;5054988;28;20496;-63
2022/05/27 09:07:31;;;;;;;25.00;2.20;;;31.20;1.10;;;;;;5053873;28;20489;-58
2022/05/27 09:10:01;;;;;;;24.40;2.03;;;32.30;1.00;;;;;;5054934;28;20473;-58
2022/05/27 09:12:39;;;;;;;25.47;2.10;;;33.60;1.00;;;;;;5054514;28;20487;-58
2022/05/27 09:15:19;;;;;;;24.93;2.27;;;34.30;1.00;;;;;;5054699;28;21274;-57
2022/05/27 09:17:55;;;;;;;24.60;1.93;;;33.80;1.00;;;;;;5056927;28;20482;-59
2022/05/27 09:20:35;;;;;;;24.47;2.40;;;32.60;1.00;;;;;;5055123;28;20452;-61
2022/05/27 09:23:17;;;;;;;24.57;2.30;;;31.40;1.00;;;;;;5052790;28;20472;-61
2022/05/27 09:25:54;;;;;;;25.63;3.20;;;32.30;1.60;;;;;;5051355;28;20461;-64
2022/05/27 09:28:29;;;;;;;28.13;2.30;;;34.50;1.00;;;;;;5049976;28;20453;-63
2022/05/27 09:30:58;;;;;;;24.30;2.30;;;34.40;1.00;;;;;;5055886;28;20474;-58
2022/05/27 09:33:26;;;;;;;24.60;2.30;;;32.70;1.00;;;;;;5055102;28;20465;-58
2022/05/27 09:36:02;;;;;;;26.63;2.43;;;31.00;1.10;;;;;;5054071;28;20493;-58
2022/05/27 09:38:31;;;;;;;26.20;2.40;;;30.20;3.20;;;;;;5052290;28;20457;-58
2022/05/27 09:41:01;;;;;;;25.10;2.70;;;29.60;3.40;;;;;;5049562;28;20453;-61
2022/05/27 09:43:34;;;;;;;25.77;2.60;;;29.30;4.50;;;;;;5053087;28;20473;-58
2022/05/27 09:46:03;;;;;;;28.53;2.40;;;29.10;5.00;;;;;;5055249;28;21258;-61
2022/05/27 09:48:29;;;;;;;25.67;2.73;;;28.60;5.40;;;;;;5055095;28;20824;-57
2022/05/27 09:50:59;;;;;;;26.63;2.43;;;28.10;5.90;;;;;;5056205;28;20462;-59
2022/05/27 09:53:29;;;;;;;27.63;2.73;;;27.70;6.00;;;;;;5054075;28;20462;-61
2022/05/27 09:56:02;;;;;;;25.70;2.57;;;27.40;5.70;;;;;;5055853;28;21051;-62
2022/05/27 09:58:32;;;;;;;27.67;2.23;;;27.10;7.00;;;;;;5061485;28;20486;-59
2022/05/27 10:00:59;;;;;;;25.60;2.40;;;26.80;6.60;;;;;;5058271;28;20476;-59
2022/05/27 10:03:30;;;;;;;26.70;2.70;;;26.50;7.50;;;;;;5054303;28;20476;-64
2022/05/27 10:06:00;;;;;;;26.20;2.67;;;26.10;7.80;;;;;;5052813;28;20454;-65
2022/05/27 10:08:37;;;;;;;28.30;2.60;;;25.80;8.70;;;;;;5055065;28;20516;-60
2022/05/27 10:11:11;;;;;;;24.97;2.50;;;25.90;8.70;;;;;;5053524;28;20457;-60
2022/05/27 10:13:41;;;;;;;26.10;2.70;;;26.00;9.20;;;;;;5052144;28;20483;-58
2022/05/27 10:16:11;;;;;;;27.20;2.37;;;26.10;9.00;;;;;;5054203;28;20572;-59
2022/05/27 10:18:38;;;;;;;25.70;2.67;;;26.10;9.20;;;;;;5051612;28;20504;-59
2022/05/27 10:21:12;;;;;;;27.20;2.60;;;26.00;9.10;;;;;;5053335;28;20469;-59
2022/05/27 10:23:42;;;;;;;26.57;3.00;;;26.00;9.10;;;;;;5051218;28;20493;-59
2022/05/27 10:26:26;;;;;;;26.23;2.90;;;26.10;9.20;;;;;;5054492;28;21849;-60
2022/05/27 10:28:59;;;;;;;26.67;2.10;;;25.90;8.80;;;;;;5055228;28;20489;-58
2022/05/27 10:31:25;;;;;;;25.30;2.50;;;25.70;9.00;;;;;;5053329;28;20485;-63
2022/05/27 10:33:53;;;;;;;26.13;2.23;;;25.80;10.50;;;;;;5053512;28;20454;-61
2022/05/27 10:36:55;;;;;;;27.67;2.33;;;25.80;9.50;;;;;;5052181;28;20512;-61
2022/05/27 10:39:28;;;;;;;25.87;2.17;;;25.40;9.90;;;;;;5042181;28;20491;-58
2022/05/27 10:42:22;;;;;;;26.27;2.73;;;25.00;10.20;;;;;;5053177;28;20469;-60
2022/05/27 10:45:07;;;;;;;27.17;2.20;;;24.70;11.60;;;;;;5054217;28;20453;-60
2022/05/27 10:47:55;;;;;;;30.00;2.50;;;24.50;12.10;;;;;;5053773;28;21048;-64
2022/05/27 10:50:29;;;;;;;25.60;2.57;;;24.50;12.30;;;;;;5053857;28;20457;-63
2022/05/27 10:53:24;;;;;;;25.27;2.30;;;24.50;12.20;;;;;;5055619;28;20461;-61
2022/05/27 10:56:03;;;;;;;25.60;2.40;;;24.50;11.60;;;;;;5053962;28;20507;-61
2022/05/27 11:02:06;;;;;;;26.40;2.40;;;24.80;10.30;;;;;;5050893;28;20483;-58
2022/05/27 11:04:53;;;;;;;27.70;2.90;;;24.80;10.70;;;;;;5050786;28;20484;-59
2022/05/27 11:07:31;;;;;;;27.57;2.37;;;24.80;10.80;;;;;;5054019;28;20481;-60
2022/05/27 11:10:09;;;;;;;25.77;2.20;;;24.80;11.00;;;;;;5051323;28;20476;-59
2022/05/27 11:15:44;;;;;;;26.33;2.60;;;24.60;11.20;;;;;;5050491;28;20877;-62
2022/05/27 11:18:21;;;;;;;27.37;2.40;;;24.50;11.20;;;;;;5055863;28;20445;-63
2022/05/27 11:21:05;;;;;;;28.27;2.63;;;24.40;11.50;;;;;;5054512;28;20469;-61
2022/05/27 11:23:51;;;;;;;26.50;2.83;;;24.30;11.80;;;;;;5054540;28;20552;-63
2022/05/27 11:26:25;;;;;;;26.10;2.20;;;24.20;11.30;;;;;;5053115;28;20478;-63
2022/05/27 11:29:16;;;;;;;25.23;2.70;;;24.10;13.00;;;;;;5053812;28;20453;-64
2022/05/27 11:31:54;;;;;;;25.37;2.83;;;24.10;13.60;;;;;;5052743;28;20496;-60
2022/05/27 11:34:26;;;;;;;28.83;2.37;;;24.10;13.80;;;;;;5052399;28;20468;-64
2022/05/27 11:37:22;;;;;;;25.60;2.60;;;24.10;12.90;;;;;;5053120;28;20496;-59
2022/05/27 11:40:10;;;;;;;25.80;2.50;;;24.30;11.40;;;;;;5052122;28;20461;-58
2022/05/27 11:42:59;;;;;;;29.83;3.40;;;24.20;12.20;;;;;;5057366;28;20862;-58
2022/05/27 11:45:28;;;;;;;25.70;2.60;;;24.10;11.90;;;;;;5057854;28;20457;-60
2022/05/27 11:48:02;;;;;;;26.70;2.60;;;24.30;12.30;;;;;;5051197;28;21215;-58
2022/05/27 11:50:42;;;;;;;27.47;2.73;;;24.40;13.70;;;;;;5051845;28;20454;-60
2022/05/27 11:53:24;;;;;;;34.43;3.73;;;24.30;12.60;;;;;;5050706;28;20475;-62
2022/05/27 11:56:03;;;;;;;29.20;4.20;;;24.20;11.90;;;;;;5051375;28;21822;-59
2022/05/27 11:58:39;;;;;;;25.53;2.53;;;24.10;12.10;;;;;;5049938;28;20473;-59
2022/05/27 12:01:11;;;;;;;25.80;2.40;;;24.10;12.30;;;;;;5051374;28;20465;-58
2022/05/27 12:03:47;;;;;;;25.80;3.57;;;24.10;12.70;;;;;;5048980;28;20469;-58
2022/05/27 12:06:18;;;;;;;26.07;2.90;;;24.10;13.30;;;;;;5047687;28;20481;-59
2022/05/27 12:08:58;;;;;;;26.10;2.77;;;24.10;12.50;;;;;;5051157;28;20457;-60
2022/05/27 12:11:33;;;;;;;28.17;3.30;;;24.10;12.50;;;;;;5054033;28;20480;-61
2022/05/27 12:14:04;;;;;;;28.73;2.63;;;24.20;11.80;;;;;;5053333;28;20458;-63
2022/05/27 12:16:37;;;;;;;25.93;3.17;;;24.10;12.30;;;;;;5051776;28;20511;-61
2022/05/27 12:19:10;;;;;;;25.80;3.00;;;24.10;12.40;;;;;;5047822;28;20457;-60
2022/05/27 12:21:40;;;;;;;27.57;3.30;;;24.20;13.10;;;;;;5049710;28;20472;-60
2022/05/27 12:24:20;;;;;;;27.30;2.70;;;24.30;12.10;;;;;;5048810;28;20465;-62
2022/05/27 12:26:54;;;;;;;26.00;2.77;;;24.30;11.90;;;;;;5050756;28;20485;-60
2022/05/27 12:29:25;;;;;;;25.57;2.40;;;24.40;11.60;;;;;;5048311;28;20460;-59
2022/05/27 12:31:54;;;;;;;30.87;3.40;;;24.40;11.40;;;;;;5050998;28;20469;-60
2022/05/27 12:34:39;;;;;;;26.50;2.60;;;24.40;11.70;;;;;;5051879;28;20968;-62
2022/05/27 12:37:22;;;;;;;26.30;2.40;;;24.50;12.10;;;;;;5052037;28;21211;-60
2022/05/27 12:39:55;;;;;;;26.50;2.60;;;24.40;11.20;;;;;;5049870;28;20470;-59
2022/05/27 12:42:41;;;;;;;26.83;2.73;;;24.20;11.20;;;;;;5049091;28;20505;-63
2022/05/27 12:45:22;;;;;;;25.93;2.70;;;24.10;12.50;;;;;;5053979;28;20466;-61
2022/05/27 12:47:52;;;;;;;26.90;3.50;;;23.90;13.20;;;;;;5047076;28;20517;-59
2022/05/27 12:50:32;;;;;;;26.17;2.57;;;23.80;12.20;;;;;;5051412;28;20932;-60
2022/05/27 12:53:13;;;;;;;26.07;2.67;;;23.70;11.90;;;;;;5051035;28;20475;-60
2022/05/27 13:01:23;;;;;;;26.70;2.57;;;23.60;12.30;;;;;;5054636;28;20472;-61
2022/05/27 13:03:59;;;;;;;26.33;2.63;;;23.50;12.00;;;;;;5061079;28;20461;-63
2022/05/27 13:06:44;;;;;;;27.30;2.80;;;23.50;12.00;;;;;;5060522;28;20576;-61
2022/05/27 13:09:33;;;;;;;26.57;2.70;;;23.40;13.40;;;;;;5060679;28;20471;-64
2022/05/27 13:12:00;;;;;;;27.00;2.70;;;23.40;11.90;;;;;;5060259;28;20461;-60
2022/05/27 13:14:42;;;;;;;29.27;3.30;;;23.30;13.70;;;;;;5061747;28;20518;-61
2022/05/27 13:17:22;;;;;;;27.50;2.93;;;23.30;13.10;;;;;;5056707;28;20494;-61
2022/05/27 13:20:02;;;;;;;26.90;2.57;;;23.30;13.00;;;;;;5061980;28;20500;-61
2022/05/27 13:22:37;;;;;;;28.37;2.73;;;23.30;12.40;;;;;;5063051;28;20608;-61
2022/05/27 13:25:27;;;;;;;26.70;3.13;;;23.30;12.80;;;;;;5060751;28;20456;-60
2022/05/27 13:28:03;;;;;;;27.33;2.70;;;23.30;13.10;;;;;;5074364;28;21996;-60
2022/05/27 13:30:57;;;;;;;27.10;2.70;;;23.30;14.60;;;;;;5061887;28;20953;-61
2022/05/27 13:33:27;;;;;;;26.90;3.03;;;23.30;13.00;;;;;;5059108;28;20488;-62
2022/05/27 13:35:56;;;;;;;27.07;3.80;;;23.30;12.80;;;;;;5058367;28;21093;-62
2022/05/27 13:38:28;;;;;;;27.83;2.70;;;23.20;12.10;;;;;;5063382;28;20489;-63